<?xml version="1.0" encoding="UTF-8" standalone="no" ?>
<gpx xmlns="http://www.topografix.com/GPX/1/1" xmlns:xsi="http://www.w3.org/2001/XMLSchema-instance" xsi:schemaLocation="http://www.topografix.com/GPX/1/1 http://www.topografix.com/GPX/1/1/gpx.xsd" version="1.1" creator="VisuGPX - https://www.visugpx.com">
  <metadata>
    <name>autre</name>
    <desc><![CDATA[Guillaume et Pierre]]></desc>
  </metadata>
  <trk>
    <name><![CDATA[19-JAN-14: 01 JAN 2014 14:41]]></name>
    <trkseg>
      <trkpt lat="45.76218" lon="4.86971">
        <ele>200.09</ele>
        <time>2014-01-01T13:41:13Z</time>
      </trkpt>
      <trkpt lat="45.76216" lon="4.86971">
        <ele>199.13</ele>
        <time>2014-01-01T13:41:15Z</time>
      </trkpt>
      <trkpt lat="45.76222" lon="4.86965">
        <ele>199.13</ele>
        <time>2014-01-01T13:43:00Z</time>
      </trkpt>
      <trkpt lat="45.7622" lon="4.86967">
        <ele>198.65</ele>
        <time>2014-01-01T13:43:15Z</time>
      </trkpt>
      <trkpt lat="45.7622" lon="4.86967">
        <ele>192.4</ele>
        <time>2014-01-01T13:44:11Z</time>
      </trkpt>
      <trkpt lat="45.7622" lon="4.86967">
        <ele>200.57</ele>
        <time>2014-01-01T13:44:13Z</time>
      </trkpt>
      <trkpt lat="45.7622" lon="4.86967">
        <ele>198.17</ele>
        <time>2014-01-01T13:44:30Z</time>
      </trkpt>
      <trkpt lat="45.76224" lon="4.86965">
        <ele>198.17</ele>
        <time>2014-01-01T13:44:44Z</time>
      </trkpt>
      <trkpt lat="45.76224" lon="4.86973">
        <ele>200.57</ele>
        <time>2014-01-01T13:45:19Z</time>
      </trkpt>
      <trkpt lat="45.7622" lon="4.86978">
        <ele>199.13</ele>
        <time>2014-01-01T13:47:32Z</time>
      </trkpt>
      <trkpt lat="45.76218" lon="4.86973">
        <ele>198.17</ele>
        <time>2014-01-01T13:47:41Z</time>
      </trkpt>
      <trkpt lat="45.76216" lon="4.86973">
        <ele>199.13</ele>
        <time>2014-01-01T13:49:09Z</time>
      </trkpt>
      <trkpt lat="45.7622" lon="4.86978">
        <ele>198.17</ele>
        <time>2014-01-01T13:50:46Z</time>
      </trkpt>
      <trkpt lat="45.7622" lon="4.86975">
        <ele>197.69</ele>
        <time>2014-01-01T13:50:53Z</time>
      </trkpt>
      <trkpt lat="45.7622" lon="4.86975">
        <ele>193.84</ele>
        <time>2014-01-19T13:05:31Z</time>
      </trkpt>
      <trkpt lat="45.7622" lon="4.86975">
        <ele>324.1</ele>
        <time>2014-01-19T13:05:33Z</time>
      </trkpt>
      <trkpt lat="45.76207" lon="4.86973">
        <ele>323.14</ele>
        <time>2014-01-19T13:07:03Z</time>
      </trkpt>
      <trkpt lat="45.76216" lon="4.86973">
        <ele>320.74</ele>
        <time>2014-01-19T13:08:00Z</time>
      </trkpt>
      <trkpt lat="45.76216" lon="4.86975">
        <ele>317.85</ele>
        <time>2014-01-19T13:08:38Z</time>
      </trkpt>
      <trkpt lat="45.76218" lon="4.86978">
        <ele>314.97</ele>
        <time>2014-01-19T13:09:25Z</time>
      </trkpt>
      <trkpt lat="45.76216" lon="4.86975">
        <ele>312.09</ele>
        <time>2014-01-19T13:10:08Z</time>
      </trkpt>
      <trkpt lat="45.76218" lon="4.86969">
        <ele>309.2</ele>
        <time>2014-01-19T13:11:05Z</time>
      </trkpt>
      <trkpt lat="45.76209" lon="4.86969">
        <ele>305.84</ele>
        <time>2014-01-19T13:11:51Z</time>
      </trkpt>
      <trkpt lat="45.76207" lon="4.86967">
        <ele>304.39</ele>
        <time>2014-01-19T13:12:21Z</time>
      </trkpt>
      <trkpt lat="45.76211" lon="4.86967">
        <ele>301.03</ele>
        <time>2014-01-19T13:13:06Z</time>
      </trkpt>
      <trkpt lat="45.76216" lon="4.86971">
        <ele>298.15</ele>
        <time>2014-01-19T13:13:56Z</time>
      </trkpt>
      <trkpt lat="45.7622" lon="4.86973">
        <ele>296.22</ele>
        <time>2014-01-19T13:14:30Z</time>
      </trkpt>
      <trkpt lat="45.7622" lon="4.86973">
        <ele>185.67</ele>
        <time>2014-01-19T13:14:41Z</time>
      </trkpt>
      <trkpt lat="45.7622" lon="4.86973">
        <ele>295.74</ele>
        <time>2014-01-19T13:14:43Z</time>
      </trkpt>
      <trkpt lat="45.7622" lon="4.86973">
        <ele>296.22</ele>
        <time>2014-01-19T13:14:48Z</time>
      </trkpt>
      <trkpt lat="45.7622" lon="4.86975">
        <ele>296.22</ele>
        <time>2014-01-19T13:14:58Z</time>
      </trkpt>
      <trkpt lat="45.76213" lon="4.86967">
        <ele>294.78</ele>
        <time>2014-01-19T13:15:26Z</time>
      </trkpt>
      <trkpt lat="45.76226" lon="4.86963">
        <ele>291.42</ele>
        <time>2014-01-19T13:16:08Z</time>
      </trkpt>
      <trkpt lat="45.76226" lon="4.86969">
        <ele>288.53</ele>
        <time>2014-01-19T13:17:08Z</time>
      </trkpt>
      <trkpt lat="45.7622" lon="4.86975">
        <ele>287.09</ele>
        <time>2014-01-19T13:17:21Z</time>
      </trkpt>
      <trkpt lat="45.7622" lon="4.86975">
        <ele>186.15</ele>
        <time>2014-01-19T13:17:32Z</time>
      </trkpt>
      <trkpt lat="45.7622" lon="4.86975">
        <ele>287.57</ele>
        <time>2014-01-19T13:17:34Z</time>
      </trkpt>
      <trkpt lat="45.7622" lon="4.86975">
        <ele>287.57</ele>
        <time>2014-01-19T13:17:37Z</time>
      </trkpt>
      <trkpt lat="45.76224" lon="4.86969">
        <ele>286.13</ele>
        <time>2014-01-19T13:17:57Z</time>
      </trkpt>
      <trkpt lat="45.76218" lon="4.86971">
        <ele>282.77</ele>
        <time>2014-01-19T13:18:45Z</time>
      </trkpt>
      <trkpt lat="45.76218" lon="4.86973">
        <ele>280.36</ele>
        <time>2014-01-19T13:19:36Z</time>
      </trkpt>
      <trkpt lat="45.76218" lon="4.86971">
        <ele>279.88</ele>
        <time>2014-01-19T13:19:55Z</time>
      </trkpt>
      <trkpt lat="45.76222" lon="4.86973">
        <ele>277</ele>
        <time>2014-01-19T13:20:39Z</time>
      </trkpt>
      <trkpt lat="45.76222" lon="4.86973">
        <ele>273.63</ele>
        <time>2014-01-19T13:21:40Z</time>
      </trkpt>
      <trkpt lat="45.7622" lon="4.86973">
        <ele>270.27</ele>
        <time>2014-01-19T13:22:50Z</time>
      </trkpt>
      <trkpt lat="45.76222" lon="4.86973">
        <ele>267.38</ele>
        <time>2014-01-19T13:24:02Z</time>
      </trkpt>
      <trkpt lat="45.7622" lon="4.86973">
        <ele>264.02</ele>
        <time>2014-01-19T13:25:10Z</time>
      </trkpt>
      <trkpt lat="45.7622" lon="4.86969">
        <ele>261.14</ele>
        <time>2014-01-19T13:26:28Z</time>
      </trkpt>
      <trkpt lat="45.76216" lon="4.86969">
        <ele>259.21</ele>
        <time>2014-01-19T13:27:15Z</time>
      </trkpt>
      <trkpt lat="45.76213" lon="4.86967">
        <ele>259.69</ele>
        <time>2014-01-19T13:27:29Z</time>
      </trkpt>
      <trkpt lat="45.76213" lon="4.86967">
        <ele>259.21</ele>
        <time>2014-01-19T13:27:34Z</time>
      </trkpt>
      <trkpt lat="45.76213" lon="4.86973">
        <ele>258.25</ele>
        <time>2014-01-19T13:27:57Z</time>
      </trkpt>
      <trkpt lat="45.76211" lon="4.86973">
        <ele>256.81</ele>
        <time>2014-01-19T13:28:22Z</time>
      </trkpt>
      <trkpt lat="45.76211" lon="4.86971">
        <ele>256.81</ele>
        <time>2014-01-19T13:28:24Z</time>
      </trkpt>
      <trkpt lat="45.76211" lon="4.86971">
        <ele>186.63</ele>
        <time>2014-01-19T13:28:55Z</time>
      </trkpt>
      <trkpt lat="45.76211" lon="4.86971">
        <ele>256.81</ele>
        <time>2014-01-19T13:28:57Z</time>
      </trkpt>
      <trkpt lat="45.76213" lon="4.86978">
        <ele>256.81</ele>
        <time>2014-01-19T13:28:58Z</time>
      </trkpt>
      <trkpt lat="45.76211" lon="4.8698">
        <ele>259.69</ele>
        <time>2014-01-19T13:29:01Z</time>
      </trkpt>
      <trkpt lat="45.76211" lon="4.8698">
        <ele>256.33</ele>
        <time>2014-01-19T13:29:02Z</time>
      </trkpt>
      <trkpt lat="45.76213" lon="4.86971">
        <ele>256.33</ele>
        <time>2014-01-19T13:29:03Z</time>
      </trkpt>
      <trkpt lat="45.76213" lon="4.86965">
        <ele>257.77</ele>
        <time>2014-01-19T13:29:05Z</time>
      </trkpt>
      <trkpt lat="45.76218" lon="4.86967">
        <ele>256.33</ele>
        <time>2014-01-19T13:29:55Z</time>
      </trkpt>
    </trkseg>
  </trk>
</gpx>